Time;durP1;ratioP1;P1;durP2;ratioP2;P2;SDS_P1;SDS_P2;PMS_P1;PMS_P2;Temp;Humidity;BMP_temperature;BMP_pressure;BME280_temperature;BME280_humidity;BME280_pressure;Samples;Min_cycle;Max_cycle;Signal;HPM_P1;HPM_P2
2023/04/16 00:00:12;;;;;;;6.85;2.47;;;;;;;11.61;72.00;99593.13;5106751;28;20030;-33
2023/04/16 00:02:38;;;;;;;17.40;8.48;;;;;;;11.44;75.27;99598.38;5106667;28;20119;-34
2023/04/16 00:05:04;;;;;;;34.28;15.65;;;;;;;11.60;74.87;99589.59;5106404;28;20470;-33
2023/04/16 00:07:29;;;;;;;11.00;5.28;;;;;;;11.56;75.24;99590.31;5106301;28;20109;-33
2023/04/16 00:09:54;;;;;;;15.07;7.15;;;;;;;11.37;77.27;99589.69;5106432;27;20036;-34
2023/04/16 00:12:20;;;;;;;30.52;15.10;;;;;;;11.37;77.35;99595.84;5106430;28;20023;-33
2023/04/16 00:14:46;;;;;;;30.33;15.60;;;;;;;11.60;75.82;99605.63;5106020;28;20420;-35
2023/04/16 00:17:11;;;;;;;15.95;6.40;;;;;;;11.58;75.74;99602.38;5106420;28;20502;-33
2023/04/16 00:19:37;;;;;;;9.40;3.92;;;;;;;11.54;76.05;99611.91;5106344;27;20020;-34
2023/04/16 00:22:03;;;;;;;8.73;3.20;;;;;;;11.54;75.09;99606.56;5106183;28;20051;-33
2023/04/16 00:24:28;;;;;;;7.32;2.67;;;;;;;10.99;78.83;99593.66;5106214;28;20092;-33
2023/04/16 00:26:53;;;;;;;6.95;2.38;;;;;;;10.78;81.36;99603.88;5106218;28;20031;-33
2023/04/16 00:29:19;;;;;;;7.68;2.33;;;;;;;10.86;83.36;99606.19;5106361;28;20027;-33
2023/04/16 00:31:44;;;;;;;6.35;2.55;;;;;;;11.35;80.58;99602.47;5106057;27;20539;-33
2023/04/16 00:34:10;;;;;;;8.38;2.88;;;;;;;11.68;78.54;99603.66;5106466;28;20035;-33
2023/04/16 00:36:35;;;;;;;6.90;2.40;;;;;;;11.64;78.14;99603.31;5105876;28;20032;-34
2023/04/16 00:39:00;;;;;;;7.60;2.72;;;;;;;10.90;84.28;99611.09;5105880;28;20682;-33
2023/04/16 00:41:26;;;;;;;7.78;3.35;;;;;;;10.70;86.40;99606.88;5105913;28;20441;-33
2023/04/16 00:43:52;;;;;;;8.63;3.92;;;;;;;10.67;86.28;99606.56;5106092;28;20058;-34
2023/04/16 00:46:20;;;;;;;8.63;3.35;;;;;;;10.53;87.48;99611.28;5105930;28;20062;-34
2023/04/16 00:48:46;;;;;;;10.23;3.28;;;;;;;10.31;87.36;99611.00;5106074;28;20110;-35
2023/04/16 00:51:11;;;;;;;7.88;2.90;;;;;;;10.31;86.77;99608.34;5106117;28;20020;-34
2023/04/16 00:53:37;;;;;;;7.93;2.95;;;;;;;10.47;86.19;99613.00;5105923;28;20065;-33
2023/04/16 00:56:05;;;;;;;6.28;2.60;;;;;;;9.97;88.99;99598.16;5105819;28;20393;-35
2023/04/16 00:58:31;;;;;;;8.53;3.50;;;;;;;10.16;88.83;99611.41;5105490;28;20034;-33
2023/04/16 01:00:56;;;;;;;7.63;3.10;;;;;;;10.25;88.24;99610.84;5106124;28;20024;-33
2023/04/16 01:03:28;;;;;;;7.40;3.08;;;;;;;10.60;85.61;99606.66;5102848;28;20088;-34
2023/04/16 01:05:54;;;;;;;8.40;3.78;;;;;;;10.68;84.62;99611.66;5104265;28;20502;-33
2023/04/16 01:08:20;;;;;;;8.57;3.20;;;;;;;11.11;83.33;99607.81;5108611;28;20024;-33
2023/04/16 01:10:46;;;;;;;9.35;3.00;;;;;;;10.90;82.28;99611.09;5108967;28;20049;-34
2023/04/16 01:13:12;;;;;;;7.43;2.70;;;;;;;10.38;85.52;99609.88;5109084;28;20020;-33
2023/04/16 01:15:38;;;;;;;9.18;3.13;;;;;;;10.09;88.26;99613.34;5104019;27;20092;-33
2023/04/16 01:18:17;;;;;;;8.32;3.80;;;;;;;10.28;88.49;99617.59;5109506;27;20416;-32
2023/04/16 01:20:44;;;;;;;9.05;3.55;;;;;;;10.29;87.42;99608.53;5109957;28;20039;-34
2023/04/16 01:23:10;;;;;;;8.73;3.70;;;;;;;9.88;89.51;99612.00;5109636;28;20821;-33
2023/04/16 01:25:36;;;;;;;9.07;3.65;;;;;;;9.63;91.67;99605.75;5109781;28;20033;-33
2023/04/16 01:28:01;;;;;;;10.27;3.45;;;;;;;9.90;90.04;99616.06;5109617;27;20041;-34
2023/04/16 01:30:27;;;;;;;7.15;3.58;;;;;;;9.97;90.40;99621.28;5109315;28;20035;-34
2023/04/16 01:32:52;;;;;;;9.07;3.60;;;;;;;9.91;90.25;99611.53;5109641;28;20172;-35
2023/04/16 01:35:18;;;;;;;5.90;3.22;;;;;;;9.93;89.16;99623.59;5109667;28;20114;-33
2023/04/16 01:37:43;;;;;;;7.93;3.40;;;;;;;9.65;89.40;99601.00;5109227;28;20511;-32
2023/04/16 01:40:09;;;;;;;8.38;3.47;;;;;;;9.81;91.12;99633.41;5109110;28;20036;-33
2023/04/16 01:42:35;;;;;;;8.75;4.05;;;;;;;9.72;91.37;99621.41;5109084;27;20027;-33
2023/04/16 01:45:01;;;;;;;10.20;3.97;;;;;;;9.89;89.54;99621.59;5109122;28;20027;-34
2023/04/16 01:47:26;;;;;;;8.98;4.05;;;;;;;9.96;90.04;99628.47;5109155;28;20083;-34
2023/04/16 01:49:52;;;;;;;6.82;3.17;;;;;;;10.05;88.44;99616.47;5108915;28;20031;-33
2023/04/16 01:52:18;;;;;;;8.18;3.10;;;;;;;10.05;87.88;99616.47;5108950;28;20072;-34
2023/04/16 01:54:43;;;;;;;5.97;2.80;;;;;;;10.16;87.77;99616.75;5109030;27;20027;-33
2023/04/16 01:57:08;;;;;;;9.60;3.25;;;;;;;10.12;87.07;99607.56;5108376;28;20063;-33
2023/04/16 01:59:34;;;;;;;6.82;3.13;;;;;;;10.35;85.01;99610.31;5109233;28;20035;-35
2023/04/16 02:02:09;;;;;;;17.95;3.65;;;;;;;10.26;85.31;99607.16;5108795;28;20412;-33
2023/04/16 02:04:38;;;;;;;6.28;2.85;;;;;;;10.26;85.46;99609.00;5108866;27;20065;-34
2023/04/16 02:07:04;;;;;;;7.90;3.88;;;;;;;10.42;84.89;99611.03;5107905;28;20044;-34
2023/04/16 02:09:30;;;;;;;7.13;3.08;;;;;;;10.49;82.90;99605.59;5107480;28;20055;-33
2023/04/16 02:11:55;;;;;;;7.75;2.72;;;;;;;10.30;84.63;99607.53;5107625;28;20028;-34
2023/04/16 02:14:24;;;;;;;6.68;2.78;;;;;;;10.28;85.38;99609.59;5107350;28;20028;-34
2023/04/16 02:16:50;;;;;;;10.55;3.17;;;;;;;10.31;84.89;99611.81;5107435;28;20595;-33
2023/04/16 02:19:15;;;;;;;6.95;2.80;;;;;;;10.34;84.34;99606.03;5107470;28;20122;-33
2023/04/16 02:21:41;;;;;;;7.03;2.78;;;;;;;10.20;84.79;99612.56;5107269;28;20035;-33
2023/04/16 02:24:07;;;;;;;7.93;2.78;;;;;;;10.05;86.70;99610.31;5107124;28;20030;-34
2023/04/16 02:26:32;;;;;;;7.10;2.75;;;;;;;10.03;86.54;99618.56;5107168;28;20960;-33
2023/04/16 02:28:57;;;;;;;9.23;3.17;;;;;;;9.71;88.54;99603.81;5107196;28;20024;-32
2023/04/16 02:31:23;;;;;;;9.00;3.40;;;;;;;9.92;87.47;99605.97;5107285;28;20408;-33
2023/04/16 02:33:48;;;;;;;6.65;2.92;;;;;;;9.89;88.58;99598.47;5107321;28;20035;-33
2023/04/16 02:36:14;;;;;;;12.27;3.17;;;;;;;9.83;88.48;99591.38;5106954;28;20031;-34
2023/04/16 02:38:39;;;;;;;9.30;3.30;;;;;;;9.65;89.16;99594.88;5107061;28;20070;-34
2023/04/16 02:41:05;;;;;;;11.25;3.65;;;;;;;9.56;89.54;99598.88;5107130;28;20118;-33
2023/04/16 02:43:30;;;;;;;8.40;3.70;;;;;;;9.64;88.95;99596.72;5106865;28;20032;-33
2023/04/16 02:45:58;;;;;;;7.72;3.03;;;;;;;9.68;88.90;99596.28;5106908;28;20104;-33
2023/04/16 02:48:23;;;;;;;8.07;2.90;;;;;;;9.36;91.24;99602.59;5106530;28;20486;-34
2023/04/16 02:50:49;;;;;;;8.02;3.53;;;;;;;9.39;92.48;99606.66;5106949;28;20123;-33
2023/04/16 02:53:14;;;;;;;7.43;3.97;;;;;;;9.40;91.68;99609.09;5107030;28;20028;-33
2023/04/16 02:55:40;;;;;;;8.38;3.90;;;;;;;9.36;91.98;99607.09;5106588;28;20092;-33
2023/04/16 02:58:05;;;;;;;9.90;4.00;;;;;;;9.89;88.47;99622.44;5106790;28;20019;-33
2023/04/16 03:00:31;;;;;;;11.52;3.92;;;;;;;10.08;86.91;99614.41;5106970;28;20104;-33
2023/04/16 03:02:56;;;;;;;8.55;3.53;;;;;;;10.13;85.94;99612.66;5106794;28;20031;-34
2023/04/16 03:05:21;;;;;;;7.32;3.08;;;;;;;9.92;86.83;99605.97;5106466;28;20030;-33
2023/04/16 03:07:49;;;;;;;9.07;3.42;;;;;;;10.18;85.15;99614.66;5065546;28;1187929;-35
2023/04/16 03:10:14;;;;;;;8.47;3.90;;;;;;;10.31;85.06;99619.81;5107742;28;20116;-33
2023/04/16 03:12:40;;;;;;;9.35;3.60;;;;;;;10.30;83.52;99623.53;5107140;28;20270;-33
2023/04/16 03:15:06;;;;;;;6.90;3.30;;;;;;;10.51;82.13;99624.03;5102264;28;20621;-33
2023/04/16 03:17:31;;;;;;;6.95;3.47;;;;;;;10.33;82.61;99641.72;5096967;28;20122;-33
2023/04/16 03:19:57;;;;;;;9.18;3.80;;;;;;;9.82;87.00;99643.00;5105916;28;20028;-34
2023/04/16 03:22:22;;;;;;;8.60;3.97;;;;;;;9.72;88.04;99642.72;5107212;28;20490;-33
2023/04/16 03:24:47;;;;;;;9.07;3.25;;;;;;;9.53;88.98;99636.59;5106680;27;20031;-33
2023/04/16 03:27:13;;;;;;;7.55;3.88;;;;;;;9.39;91.36;99649.22;5105898;27;20028;-33
2023/04/16 03:29:38;;;;;;;8.55;3.30;;;;;;;9.41;91.06;99652.47;5106761;28;20156;-34
2023/04/16 03:32:04;;;;;;;9.68;3.63;;;;;;;9.98;87.93;99645.03;5106647;28;20084;-33
2023/04/16 03:34:30;;;;;;;8.60;3.28;;;;;;;10.18;86.58;99651.97;5107092;28;20039;-34
2023/04/16 03:36:55;;;;;;;9.63;3.50;;;;;;;10.19;85.85;99653.56;5105923;28;20059;-33
2023/04/16 03:39:20;;;;;;;8.77;3.67;;;;;;;10.27;83.66;99646.06;5106441;28;20035;-35
2023/04/16 03:41:46;;;;;;;8.52;3.55;;;;;;;10.37;82.44;99644.75;5106849;28;20128;-33
2023/04/16 03:44:11;;;;;;;7.03;3.42;;;;;;;10.34;82.64;99646.03;5106518;28;20397;-34
2023/04/16 03:46:37;;;;;;;7.82;3.50;;;;;;;10.15;83.67;99637.22;5106520;28;20198;-34
2023/04/16 03:49:02;;;;;;;9.45;3.53;;;;;;;9.81;85.70;99647.50;5106561;28;20130;-33
2023/04/16 03:51:27;;;;;;;7.50;3.55;;;;;;;9.69;87.95;99648.50;5106253;28;20023;-33
2023/04/16 03:53:53;;;;;;;8.82;3.58;;;;;;;10.24;84.26;99659.06;5106595;27;20425;-33
2023/04/16 03:56:18;;;;;;;7.78;3.90;;;;;;;9.96;84.45;99641.78;5106453;27;20423;-34
2023/04/16 03:58:44;;;;;;;8.23;3.47;;;;;;;9.71;86.69;99673.06;5106177;28;20054;-33
2023/04/16 04:01:09;;;;;;;7.25;3.10;;;;;;;9.76;87.48;99675.84;5106800;27;20028;-33
2023/04/16 04:03:34;;;;;;;8.27;3.50;;;;;;;9.91;86.38;99678.13;5106190;28;20047;-34
2023/04/16 04:06:00;;;;;;;24.05;7.18;;;;;;;10.06;85.22;99676.69;5105763;28;20469;-33
2023/04/16 04:08:26;;;;;;;18.15;8.95;;;;;;;10.21;84.75;99684.28;5105975;28;20039;-33
2023/04/16 04:10:51;;;;;;;22.52;14.45;;;;;;;10.32;83.08;99669.44;5096348;28;20374;-33
2023/04/16 04:13:16;;;;;;;10.90;5.25;;;;;;;10.30;82.23;99676.00;5105834;28;20034;-33
2023/04/16 04:15:43;;;;;;;9.63;4.97;;;;;;;10.22;82.81;99653.94;5106202;28;20035;-33
2023/04/16 04:18:08;;;;;;;14.88;7.70;;;;;;;10.39;82.58;99654.13;5106570;28;20034;-33
2023/04/16 04:20:38;;;;;;;75.95;37.58;;;;;;;10.42;81.69;99658.19;5106104;28;20027;-32
2023/04/16 04:23:03;;;;;;;59.72;31.73;;;;;;;10.66;80.94;99675.06;5106308;28;20024;-34
2023/04/16 04:25:29;;;;;;;29.50;14.40;;;;;;;10.78;80.14;99683.91;5106092;28;20145;-33
2023/04/16 04:27:54;;;;;;;21.60;11.93;;;;;;;10.67;81.28;99687.38;5106371;28;20036;-33
2023/04/16 04:30:20;;;;;;;20.58;11.27;;;;;;;10.53;82.34;99685.94;5106186;28;20133;-36
2023/04/16 04:32:45;;;;;;;15.90;8.10;;;;;;;10.51;81.80;99669.38;5106085;28;20028;-33
2023/04/16 04:35:11;;;;;;;17.38;8.82;;;;;;;10.39;84.02;99675.47;5106111;28;20027;-33
2023/04/16 04:37:36;;;;;;;12.32;6.82;;;;;;;10.66;82.50;99680.41;5105984;28;20028;-34
2023/04/16 04:40:01;;;;;;;9.57;4.82;;;;;;;10.64;80.92;99687.81;5106270;28;20024;-34
2023/04/16 04:42:27;;;;;;;9.02;4.78;;;;;;;10.69;79.77;99668.47;5105834;28;20088;-33
2023/04/16 04:44:53;;;;;;;8.68;4.70;;;;;;;11.12;77.60;99689.50;5106101;28;20069;-33
2023/04/16 04:47:18;;;;;;;9.70;4.80;;;;;;;11.01;78.13;99685.81;5106097;28;20384;-35
2023/04/16 04:49:43;;;;;;;15.88;7.80;;;;;;;10.50;81.74;99686.38;5105984;28;20839;-33
2023/04/16 04:52:10;;;;;;;14.25;7.30;;;;;;;10.58;83.14;99680.72;5105715;28;20030;-32
2023/04/16 04:54:35;;;;;;;12.55;5.22;;;;;;;10.80;79.81;99679.16;5105679;28;20462;-33
2023/04/16 04:57:01;;;;;;;9.60;4.85;;;;;;;10.76;82.94;99695.84;5105526;28;20496;-33
2023/04/16 04:59:27;;;;;;;11.80;5.82;;;;;;;10.58;85.06;99699.38;5105716;28;20482;-34
2023/04/16 05:01:52;;;;;;;9.60;4.45;;;;;;;10.56;85.63;99702.31;5105748;28;20020;-34
2023/04/16 05:04:18;;;;;;;9.77;4.95;;;;;;;10.54;86.46;99703.56;5105522;28;20077;-33
2023/04/16 05:06:43;;;;;;;12.77;6.00;;;;;;;10.57;89.56;99708.44;5105909;28;20043;-33
2023/04/16 05:09:10;;;;;;;14.18;6.97;;;;;;;10.86;87.15;99698.75;5105355;28;20057;-34
2023/04/16 05:11:40;;;;;;;15.52;7.30;;;;;;;10.57;88.69;99689.78;5105720;28;20505;-34
2023/04/16 05:14:06;;;;;;;14.02;7.60;;;;;;;10.57;87.98;99687.13;5105830;28;20028;-33
2023/04/16 05:16:31;;;;;;;10.70;4.95;;;;;;;10.61;87.80;99691.75;5105439;28;20024;-33
2023/04/16 05:18:57;;;;;;;11.25;4.63;;;;;;;10.70;89.77;99707.44;5105337;28;20025;-34
2023/04/16 05:21:23;;;;;;;15.63;5.50;;;;;;;10.90;86.70;99701.78;5105512;28;20024;-32
2023/04/16 05:23:48;;;;;;;14.25;9.10;;;;;;;11.12;85.97;99700.19;5105695;28;20393;-34
2023/04/16 05:26:13;;;;;;;17.17;11.80;;;;;;;11.11;84.71;99698.56;5105357;28;20032;-35
2023/04/16 05:28:39;;;;;;;17.90;10.70;;;;;;;11.27;84.27;99700.53;5105627;28;20026;-33
2023/04/16 05:31:04;;;;;;;14.82;8.75;;;;;;;11.60;82.16;99704.44;5105048;28;20454;-34
2023/04/16 05:33:30;;;;;;;17.23;7.93;;;;;;;11.90;81.22;99698.16;5105479;28;20050;-33
2023/04/16 05:35:55;;;;;;;106.72;36.30;;;;;;;11.97;79.02;99693.50;5104988;28;20424;-33
2023/04/16 05:38:21;;;;;;;38.30;15.07;;;;;;;11.91;78.49;99704.31;5105466;28;20030;-34
2023/04/16 05:40:46;;;;;;;156.75;35.95;;;;;;;11.54;80.93;99708.06;5105425;28;20459;-33
2023/04/16 05:43:11;;;;;;;8.20;3.90;;;;;;;11.68;79.20;99713.16;5105615;28;20031;-34
2023/04/16 05:45:39;;;;;;;14.70;6.50;;;;;;;11.83;78.43;99695.59;5105449;28;20081;-33
2023/04/16 05:48:07;;;;;;;10.52;5.85;;;;;;;11.98;78.23;99703.13;5105070;28;20023;-33
2023/04/16 05:50:33;;;;;;;44.22;24.20;;;;;;;12.21;75.80;99701.44;5108502;28;20421;-33
2023/04/16 05:52:59;;;;;;;10.57;4.80;;;;;;;12.00;77.08;99694.91;5108890;28;20031;-33
2023/04/16 05:55:24;;;;;;;8.18;4.60;;;;;;;12.16;75.25;99691.47;5109167;28;20042;-34
2023/04/16 05:57:50;;;;;;;13.77;7.07;;;;;;;11.82;76.80;99677.13;5108811;28;20250;-33
2023/04/16 06:00:15;;;;;;;12.95;4.60;;;;;;;11.96;76.70;99694.53;5108841;28;20031;-34
2023/04/16 06:02:43;;;;;;;9.57;5.18;;;;;;;12.14;74.75;99695.44;5108802;28;20020;-33
2023/04/16 06:05:09;;;;;;;12.52;5.68;;;;;;;12.29;74.89;99698.38;5108717;27;20503;-33
2023/04/16 06:07:34;;;;;;;11.27;4.82;;;;;;;12.35;76.85;99689.41;5108878;28;20039;-35
2023/04/16 06:10:00;;;;;;;7.78;4.10;;;;;;;12.28;76.65;99696.78;5102843;28;20028;-34
2023/04/16 06:12:26;;;;;;;9.15;4.78;;;;;;;12.31;76.00;99695.47;5106191;28;20023;-34
2023/04/16 06:14:51;;;;;;;7.55;4.15;;;;;;;12.61;75.07;99665.78;5108531;27;20023;-33
2023/04/16 06:17:17;;;;;;;7.95;3.65;;;;;;;13.18;70.33;99684.34;5104320;28;20036;-34
2023/04/16 06:19:43;;;;;;;12.88;5.68;;;;;;;13.06;72.36;99689.78;5108493;28;20029;-34
2023/04/16 06:22:09;;;;;;;8.60;4.28;;;;;;;13.04;73.12;99685.75;5108373;28;20027;-33
2023/04/16 06:24:35;;;;;;;14.07;5.70;;;;;;;13.18;70.54;99679.00;5108338;28;20020;-32
2023/04/16 06:27:00;;;;;;;16.35;7.75;;;;;;;13.54;68.74;99695.59;5108152;28;20042;-32
2023/04/16 06:29:26;;;;;;;9.20;3.55;;;;;;;13.92;65.67;99696.63;5107832;28;20373;-34
2023/04/16 06:31:51;;;;;;;7.28;3.92;;;;;;;14.03;64.34;99690.31;5107832;28;20028;-34
2023/04/16 06:34:16;;;;;;;17.55;9.68;;;;;;;14.43;61.41;99677.59;5108337;28;20028;-33
2023/04/16 06:36:42;;;;;;;26.40;15.30;;;;;;;14.58;61.72;99685.00;5097146;28;20031;-34
2023/04/16 06:39:07;;;;;;;17.00;8.68;;;;;;;14.75;62.37;99683.03;5107309;28;20024;-33
2023/04/16 06:41:33;;;;;;;9.15;4.03;;;;;;;14.47;62.54;99684.88;5108054;28;20505;-33
2023/04/16 06:43:58;;;;;;;20.70;6.03;;;;;;;14.86;63.20;99692.75;5108093;28;20401;-33
2023/04/16 06:46:23;;;;;;;8.00;4.45;;;;;;;14.92;61.87;99692.81;5108114;28;20024;-34
2023/04/16 06:48:49;;;;;;;10.60;2.95;;;;;;;14.79;61.14;99702.91;5108003;28;20081;-32
2023/04/16 06:51:15;;;;;;;8.98;3.47;;;;;;;14.66;62.98;99708.69;5107636;28;20024;-34
2023/04/16 06:53:41;;;;;;;11.95;3.78;;;;;;;14.93;61.67;99707.84;5107744;28;20408;-35
2023/04/16 06:56:07;;;;;;;17.42;6.45;;;;;;;14.78;63.28;99706.66;5107890;28;20032;-36
2023/04/16 06:58:32;;;;;;;7.90;3.20;;;;;;;15.02;62.78;99698.25;5107453;28;20028;-34
2023/04/16 07:00:58;;;;;;;9.50;3.38;;;;;;;14.90;60.93;99697.63;5106320;28;20058;-33
2023/04/16 07:03:23;;;;;;;6.75;2.90;;;;;;;14.80;61.48;99699.16;5107704;28;20031;-33
2023/04/16 07:05:49;;;;;;;7.57;3.00;;;;;;;14.77;61.64;99710.41;5107596;28;20416;-33
2023/04/16 07:08:14;;;;;;;7.65;2.63;;;;;;;14.76;60.72;99711.47;5106207;28;20477;-32
2023/04/16 07:10:40;;;;;;;5.80;2.60;;;;;;;14.90;60.22;99709.19;5107464;28;20019;-33
2023/04/16 07:13:05;;;;;;;6.45;2.33;;;;;;;15.53;59.10;99700.44;5107504;28;20405;-34
2023/04/16 07:15:30;;;;;;;5.00;2.50;;;;;;;15.51;57.49;99702.59;5107147;28;20020;-35
2023/04/16 07:17:56;;;;;;;8.32;2.67;;;;;;;15.11;58.10;99710.13;5107405;28;20110;-32
2023/04/16 07:20:21;;;;;;;8.40;2.70;;;;;;;15.64;57.62;99713.69;5107141;28;20026;-33
2023/04/16 07:22:47;;;;;;;6.15;2.65;;;;;;;15.86;57.52;99712.75;5107130;28;20036;-33
2023/04/16 07:25:12;;;;;;;6.63;2.60;;;;;;;15.53;60.43;99711.19;5107521;28;20061;-33
2023/04/16 07:27:37;;;;;;;5.35;2.17;;;;;;;15.45;58.95;99715.22;5107061;28;20031;-33
2023/04/16 07:30:03;;;;;;;8.48;2.70;;;;;;;15.25;60.18;99705.94;5107252;28;20031;-34
2023/04/16 07:32:29;;;;;;;5.68;2.40;;;;;;;15.11;59.60;99691.34;5107194;28;20027;-33
2023/04/16 07:34:55;;;;;;;5.63;2.58;;;;;;;15.47;59.72;99708.50;5107486;28;20035;-33
2023/04/16 07:37:21;;;;;;;7.60;2.45;;;;;;;15.45;59.27;99701.78;5106709;28;20031;-33
2023/04/16 07:39:46;;;;;;;7.53;2.67;;;;;;;15.52;59.92;99705.03;5106893;27;20031;-33
2023/04/16 07:42:12;;;;;;;5.88;2.67;;;;;;;15.66;59.70;99698.13;5106788;28;20019;-33
2023/04/16 07:44:38;;;;;;;7.35;2.35;;;;;;;15.78;58.38;99707.88;5106836;28;20031;-33
2023/04/16 07:47:03;;;;;;;8.63;2.78;;;;;;;15.60;56.57;99696.47;5106566;28;20063;-33
2023/04/16 07:49:29;;;;;;;6.70;2.30;;;;;;;15.49;57.03;99697.50;5106707;28;20047;-33
2023/04/16 07:51:56;;;;;;;8.90;3.55;;;;;;;15.63;58.54;99693.28;5106807;28;20114;-33
2023/04/16 07:54:22;;;;;;;9.32;2.70;;;;;;;15.48;57.98;99703.94;5106405;27;20027;-34
2023/04/16 07:56:47;;;;;;;6.53;2.33;;;;;;;15.68;56.01;99704.03;5106746;28;20028;-35
2023/04/16 07:59:13;;;;;;;8.07;1.77;;;;;;;15.52;57.31;99696.16;5106506;28;20023;-33
2023/04/16 08:01:38;;;;;;;6.05;2.25;;;;;;;15.34;57.40;99692.03;5106525;28;20047;-32
2023/04/16 08:04:04;;;;;;;10.95;2.83;;;;;;;15.45;56.98;99696.41;5105625;28;20045;-33
2023/04/16 08:06:30;;;;;;;9.93;2.83;;;;;;;15.62;54.82;99688.94;5106668;28;20059;-35
2023/04/16 08:08:55;;;;;;;6.85;2.70;;;;;;;15.91;53.96;99677.81;5106505;28;20023;-33
2023/04/16 08:11:21;;;;;;;6.78;2.55;;;;;;;16.52;51.92;99692.50;5106393;28;20023;-34
2023/04/16 08:13:46;;;;;;;8.07;2.70;;;;;;;16.55;51.71;99694.66;5090394;28;20043;-35
2023/04/16 08:16:12;;;;;;;6.90;2.50;;;;;;;16.75;52.27;99696.56;5085791;28;20013;-32
2023/04/16 08:18:37;;;;;;;6.50;2.90;;;;;;;17.03;50.12;99696.03;5085934;28;20039;-33
2023/04/16 08:21:03;;;;;;;5.28;2.17;;;;;;;17.16;48.25;99697.41;5085763;28;20031;-33
2023/04/16 08:23:28;;;;;;;7.93;2.47;;;;;;;17.14;49.96;99690.66;5086016;28;20093;-33
2023/04/16 08:25:54;;;;;;;7.68;2.22;;;;;;;17.26;48.08;99694.69;5085765;28;20040;-32
2023/04/16 08:28:19;;;;;;;8.25;2.88;;;;;;;17.30;47.74;99689.53;5085925;28;20032;-34
2023/04/16 08:30:45;;;;;;;7.95;2.40;;;;;;;17.42;48.04;99681.97;5085402;28;20020;-32
2023/04/16 08:33:12;;;;;;;4.00;1.90;;;;;;;17.52;47.17;99678.44;5085984;28;20594;-33
2023/04/16 08:35:38;;;;;;;4.68;1.90;;;;;;;17.76;47.90;99675.94;5086069;28;20031;-33
2023/04/16 08:38:04;;;;;;;7.30;2.72;;;;;;;17.51;47.46;99667.94;5103261;28;20051;-33
2023/04/16 08:40:30;;;;;;;7.00;2.10;;;;;;;17.67;48.23;99667.63;5105338;28;20400;-32
2023/04/16 08:42:58;;;;;;;11.80;2.47;;;;;;;18.48;46.16;99643.97;5105420;27;20027;-32
2023/04/16 08:45:26;;;;;;;6.53;2.92;;;;;;;18.70;46.33;99645.44;5105462;27;20027;-33
2023/04/16 08:47:52;;;;;;;8.60;2.70;;;;;;;18.74;44.94;99654.59;5104476;28;20547;-32
2023/04/16 08:50:25;;;;;;;5.03;2.45;;;;;;;18.99;43.34;99641.97;5098697;28;20032;-32
2023/04/16 08:53:00;;;;;;;6.05;2.58;;;;;;;19.13;43.42;99644.81;5105703;28;20516;-33
2023/04/16 08:55:34;;;;;;;6.35;2.78;;;;;;;19.21;46.33;99634.16;5105963;27;20117;-32
2023/04/16 08:58:06;;;;;;;6.32;2.97;;;;;;;19.54;48.48;99637.06;5105571;27;20507;-34
2023/04/16 09:00:33;;;;;;;7.32;2.53;;;;;;;19.37;44.76;99648.34;5105941;27;20039;-33
2023/04/16 09:02:59;;;;;;;9.60;2.90;;;;;;;19.76;45.47;99643.88;5105697;28;20024;-33
2023/04/16 09:05:28;;;;;;;9.15;3.88;;;;;;;19.96;46.00;99627.34;5105450;27;20742;-35
2023/04/16 09:07:53;;;;;;;8.57;2.88;;;;;;;20.10;45.84;99632.81;5105421;27;20160;-33
2023/04/16 09:10:19;;;;;;;11.02;5.13;;;;;;;19.77;46.67;99634.63;5105641;28;20067;-33
2023/04/16 09:12:45;;;;;;;6.93;2.70;;;;;;;19.83;46.58;99638.88;5105428;27;20443;-32
2023/04/16 09:15:12;;;;;;;8.23;2.50;;;;;;;19.20;48.84;99626.34;5105644;27;20046;-34
2023/04/16 09:17:38;;;;;;;13.10;4.80;;;;;;;18.96;48.95;99616.34;5105619;28;20035;-35
2023/04/16 09:20:07;;;;;;;11.10;3.38;;;;;;;19.54;49.12;99612.72;5105751;28;20419;-32
2023/04/16 09:22:36;;;;;;;8.50;2.80;;;;;;;20.18;50.39;99607.78;5105656;28;20019;-33
2023/04/16 09:25:01;;;;;;;8.13;3.00;;;;;;;19.93;49.70;99611.69;5108079;28;20023;-32
2023/04/16 09:27:27;;;;;;;9.00;2.80;;;;;;;19.56;51.18;99602.41;5109772;27;20466;-33
2023/04/16 09:29:53;;;;;;;17.75;5.32;;;;;;;19.78;51.53;99601.09;5109401;27;20019;-34
2023/04/16 09:32:25;;;;;;;15.05;5.28;;;;;;;19.78;51.45;99574.03;5109664;28;20044;-32
2023/04/16 09:34:58;;;;;;;12.77;5.07;;;;;;;20.33;51.33;99587.81;5109510;27;20127;-32
2023/04/16 09:37:25;;;;;;;8.43;3.53;;;;;;;20.45;51.19;99571.91;5109703;27;20754;-33
2023/04/16 09:39:53;;;;;;;11.23;3.00;;;;;;;19.97;53.06;99588.34;5109284;27;20504;-33
2023/04/16 09:42:24;;;;;;;9.82;3.65;;;;;;;20.10;54.32;99575.19;5109431;27;20042;-34
2023/04/16 09:44:51;;;;;;;10.85;3.95;;;;;;;19.87;56.80;99574.97;5109208;28;20028;-34
2023/04/16 09:47:16;;;;;;;10.20;2.95;;;;;;;19.59;58.73;99591.00;5109393;27;20632;-34
2023/04/16 09:49:42;;;;;;;7.95;2.95;;;;;;;19.51;57.11;99594.34;5108722;27;20024;-33
2023/04/16 09:52:15;;;;;;;10.13;3.63;;;;;;;19.68;57.25;99583.84;5109072;27;20059;-33
2023/04/16 09:54:51;;;;;;;12.38;3.78;;;;;;;20.05;57.95;99562.53;5123447;27;20022;-34
2023/04/16 09:57:21;;;;;;;10.23;3.90;;;;;;;20.09;58.73;99576.28;5116349;27;20528;-34
2023/04/16 09:59:56;;;;;;;9.52;4.85;;;;;;;20.09;58.87;99562.75;5097421;27;20230;-34
2023/04/16 10:02:29;;;;;;;11.23;3.47;;;;;;;20.14;56.00;99573.50;5112439;27;20555;-34
2023/04/16 10:04:56;;;;;;;12.18;3.47;;;;;;;20.07;56.34;99569.25;5115918;27;20024;-33
2023/04/16 10:07:22;;;;;;;11.00;4.20;;;;;;;20.47;56.70;99567.00;5114584;27;20054;-33
2023/04/16 10:09:48;;;;;;;11.68;4.05;;;;;;;20.56;56.31;99558.19;5108992;28;20036;-33
2023/04/16 10:12:15;;;;;;;11.90;4.22;;;;;;;20.61;55.61;99555.41;5108010;27;20062;-32
2023/04/16 10:14:41;;;;;;;10.95;4.57;;;;;;;20.53;57.99;99558.78;5108216;28;20091;-33
2023/04/16 10:17:07;;;;;;;13.82;4.80;;;;;;;20.89;57.45;99569.03;5114376;27;20118;-34
2023/04/16 10:19:34;;;;;;;9.63;3.75;;;;;;;20.96;56.67;99550.44;5119955;27;20758;-34
2023/04/16 10:22:00;;;;;;;7.28;3.40;;;;;;;21.00;54.92;99562.28;5129165;27;20020;-34
2023/04/16 10:24:26;;;;;;;7.63;3.30;;;;;;;21.35;54.51;99551.84;5122144;27;20028;-33
2023/04/16 10:26:52;;;;;;;11.95;3.97;;;;;;;20.72;55.96;99562.28;5111732;27;20122;-33
2023/04/16 10:29:21;;;;;;;10.93;3.55;;;;;;;21.10;55.82;99561.28;5123995;27;20102;-34
2023/04/16 10:31:48;;;;;;;9.23;3.47;;;;;;;21.27;51.71;99562.31;5108362;28;20031;-33
2023/04/16 10:34:15;;;;;;;9.55;3.38;;;;;;;22.04;52.62;99562.56;5108128;28;20596;-32
2023/04/16 10:36:41;;;;;;;12.80;3.58;;;;;;;21.30;50.08;99557.38;5107500;28;20028;-33
2023/04/16 10:39:13;;;;;;;9.70;3.20;;;;;;;21.51;50.40;99555.84;5107846;28;20419;-33
2023/04/16 10:41:39;;;;;;;9.63;4.07;;;;;;;21.83;50.19;99556.81;5107835;28;20639;-34
2023/04/16 10:44:08;;;;;;;10.27;2.90;;;;;;;21.34;48.23;99540.19;5107993;28;20503;-33
2023/04/16 10:46:40;;;;;;;7.38;3.35;;;;;;;21.24;50.56;99538.47;5119305;27;20070;-34
2023/04/16 10:49:16;;;;;;;8.88;3.67;;;;;;;21.86;48.93;99550.75;5113857;27;20528;-35
2023/04/16 10:51:51;;;;;;;8.65;3.40;;;;;;;20.76;48.52;99555.16;5113738;27;20496;-33
2023/04/16 10:54:18;;;;;;;9.50;3.45;;;;;;;21.12;51.93;99554.47;5126501;27;20019;-33
2023/04/16 10:56:45;;;;;;;9.48;3.28;;;;;;;21.23;52.37;99536.09;5120370;27;20043;-33
2023/04/16 10:59:11;;;;;;;13.00;3.72;;;;;;;21.18;53.18;99558.66;5109640;27;20024;-33
2023/04/16 11:01:41;;;;;;;10.98;3.92;;;;;;;21.00;52.37;99529.75;5116763;27;20039;-35
2023/04/16 11:04:19;;;;;;;10.82;4.65;;;;;;;21.08;54.21;99542.59;5128039;27;20034;-33
2023/04/16 11:07:13;;;;;;;11.50;4.97;;;;;;;21.01;53.08;99553.06;5120903;27;20058;-33
2023/04/16 11:10:05;;;;;;;10.88;3.75;;;;;;;21.26;52.15;99532.75;5128335;27;20073;-33
2023/04/16 11:12:36;;;;;;;11.52;3.85;;;;;;;21.52;53.95;99552.06;5122457;27;20550;-35
2023/04/16 11:15:09;;;;;;;11.98;4.07;;;;;;;21.86;53.53;99545.31;5119115;27;20027;-33
2023/04/16 11:17:50;;;;;;;12.60;4.28;;;;;;;22.48;51.68;99541.97;5117079;27;20042;-33
2023/04/16 11:20:19;;;;;;;7.88;3.60;;;;;;;22.66;49.01;99540.94;5107074;28;20024;-33
2023/04/16 11:22:45;;;;;;;8.85;3.03;;;;;;;22.49;46.50;99535.41;5114939;27;20019;-34
2023/04/16 11:25:11;;;;;;;10.65;3.22;;;;;;;22.11;47.28;99545.81;5127775;27;20027;-33
2023/04/16 11:27:37;;;;;;;9.68;3.08;;;;;;;22.52;44.81;99542.16;5127393;27;20054;-33